createdAt,value
2022-09-23T00:00:29.774Z,12
2022-09-23T00:05:41.667Z,12
2022-09-23T00:10:53.284Z,12
2022-09-23T00:16:05.226Z,12
2022-09-23T00:21:17.069Z,12
2022-09-23T00:26:28.781Z,12
2022-09-23T00:31:40.629Z,12
2022-09-23T00:36:52.369Z,12
2022-09-23T00:42:03.997Z,12
2022-09-23T00:47:15.665Z,12
2022-09-23T00:52:27.328Z,12
2022-09-23T00:57:39.050Z,11
2022-09-23T01:02:51.249Z,11
2022-09-23T01:08:03.185Z,11
2022-09-23T01:13:14.950Z,11
2022-09-23T01:18:26.744Z,11
2022-09-23T01:23:38.466Z,11
2022-09-23T01:28:50.393Z,11
2022-09-23T01:34:02.107Z,11
2022-09-23T01:39:13.923Z,11
2022-09-23T01:44:25.583Z,11
2022-09-23T01:49:37.993Z,11
2022-09-23T01:54:49.671Z,11
2022-09-23T02:00:01.404Z,10
2022-09-23T02:05:13.130Z,10
2022-09-23T02:10:24.737Z,10
2022-09-23T02:15:36.576Z,10
2022-09-23T02:20:48.300Z,10
2022-09-23T02:25:59.799Z,10
2022-09-23T02:31:11.569Z,10
2022-09-23T02:36:23.413Z,10
2022-09-23T02:41:35.146Z,10
2022-09-23T02:46:46.795Z,10
2022-09-23T02:51:58.477Z,10
2022-09-23T02:57:10.138Z,9
2022-09-23T03:02:22.178Z,9
2022-09-23T03:07:33.660Z,9
2022-09-23T03:12:45.378Z,9
2022-09-23T03:17:57.044Z,9
2022-09-23T03:23:08.577Z,9
2022-09-23T03:28:20.281Z,9
2022-09-23T03:33:32.052Z,9
2022-09-23T03:38:43.735Z,9
2022-09-23T03:43:55.645Z,8
2022-09-23T03:49:07.215Z,9
2022-09-23T03:54:18.891Z,9
2022-09-23T03:59:30.686Z,8
2022-09-23T04:04:42.337Z,9
2022-09-23T04:09:53.936Z,8
2022-09-23T04:15:05.780Z,8
2022-09-23T04:20:17.625Z,8
2022-09-23T04:25:29.498Z,8
2022-09-23T04:30:41.242Z,8
2022-09-23T04:35:53.068Z,8
2022-09-23T04:41:04.881Z,8
2022-09-23T04:46:17.080Z,9
2022-09-23T04:51:28.992Z,9
2022-09-23T04:56:40.702Z,9
2022-09-23T05:01:52.880Z,8
2022-09-23T05:07:04.734Z,8
2022-09-23T05:12:16.716Z,8
2022-09-23T05:17:28.604Z,8
2022-09-23T05:22:40.397Z,8
2022-09-23T05:27:52.311Z,8
2022-09-23T05:33:04.187Z,8
2022-09-23T05:38:16.123Z,9
2022-09-23T05:43:27.863Z,9
2022-09-23T05:48:39.973Z,9
2022-09-23T05:53:52.001Z,9
2022-09-23T05:59:04.200Z,9
2022-09-23T06:04:16.023Z,9
2022-09-23T06:09:28.751Z,9
2022-09-23T06:14:46.188Z,9
2022-09-23T06:19:58.216Z,9
2022-09-23T06:25:10.115Z,9
2022-09-23T06:30:21.914Z,9
2022-09-23T06:35:33.909Z,9
2022-09-23T06:40:45.866Z,9
2022-09-23T06:45:57.799Z,9
2022-09-23T06:51:09.755Z,10
2022-09-23T06:56:21.855Z,10
2022-09-23T07:01:34.284Z,10
2022-09-23T07:06:46.698Z,10
2022-09-23T07:11:58.514Z,10
2022-09-23T07:17:10.606Z,11
2022-09-23T07:22:22.821Z,11
2022-09-23T07:27:34.816Z,11
2022-09-23T07:32:50.033Z,11
2022-09-23T07:38:01.353Z,11
2022-09-23T07:43:13.424Z,11
2022-09-23T07:48:25.542Z,12
2022-09-23T07:53:37.662Z,12
2022-09-23T07:58:49.743Z,12
2022-09-23T08:04:01.970Z,13
2022-09-23T08:09:14.042Z,13
2022-09-23T08:14:26.198Z,13
2022-09-23T08:19:38.198Z,14
2022-09-23T08:24:56.256Z,13
2022-09-23T08:30:10.510Z,14
2022-09-23T08:35:22.686Z,14
2022-09-23T08:40:35.129Z,15
2022-09-23T08:45:47.286Z,15
2022-09-23T08:50:59.140Z,15
2022-09-23T08:56:11.322Z,15
2022-09-23T09:01:23.426Z,16
2022-09-23T09:06:57.656Z,16
2022-09-23T09:12:42.557Z,16
2022-09-23T09:17:54.434Z,17
2022-09-23T09:23:06.404Z,17
2022-09-23T09:28:20.859Z,17
2022-09-23T09:33:36.657Z,17
2022-09-23T09:38:48.711Z,18
2022-09-23T09:44:01.316Z,18
2022-09-23T09:49:13.282Z,18
2022-09-23T09:54:25.286Z,18
2022-09-23T09:59:37.658Z,18
2022-09-23T10:04:49.886Z,18
2022-09-23T10:10:33.820Z,18
2022-09-23T10:15:45.908Z,18
2022-09-23T10:21:03.094Z,18
2022-09-23T10:26:17.639Z,19
2022-09-23T10:31:29.932Z,19
2022-09-23T10:36:45.422Z,19
2022-09-23T10:41:56.550Z,19
2022-09-23T10:47:08.912Z,19
2022-09-23T10:52:21.230Z,20
2022-09-23T10:57:33.256Z,19
2022-09-23T11:02:45.983Z,20
2022-09-23T11:07:58.657Z,21
2022-09-23T11:13:12.731Z,21
2022-09-23T11:18:27.119Z,24
2022-09-23T11:23:42.344Z,28
2022-09-23T11:28:56.959Z,30
2022-09-23T11:34:11.110Z,31
2022-09-23T11:39:24.317Z,31
2022-09-23T11:44:37.815Z,31
2022-09-23T11:49:50.580Z,31
2022-09-23T11:55:23.292Z,32
2022-09-23T12:00:33.248Z,32
2022-09-23T12:05:46.476Z,32
2022-09-23T12:16:10.650Z,31
2022-09-23T12:21:51.776Z,32
2022-09-23T12:37:19.461Z,29
2022-09-23T12:42:32.828Z,31
2022-09-23T12:47:45.897Z,32
2022-09-23T12:52:59.552Z,32
2022-09-23T12:58:12.791Z,32
2022-09-23T13:08:35.933Z,32
2022-09-23T13:13:48.423Z,32
2022-09-23T13:19:00.643Z,31
2022-09-23T13:34:32.713Z,28
2022-09-23T13:39:44.314Z,28
2022-09-23T13:50:06.096Z,27
2022-09-23T13:55:17.953Z,27
2022-09-23T14:00:29.844Z,27
2022-09-23T14:21:12.472Z,25
2022-09-23T14:26:24.848Z,25
2022-09-23T14:31:37.397Z,25
2022-09-23T14:42:00.409Z,24
2022-09-23T14:47:13.003Z,25
2022-09-23T14:52:25.118Z,24
2022-09-23T14:57:37.019Z,24
2022-09-23T15:02:49.328Z,24
2022-09-23T15:08:01.387Z,24
2022-09-23T15:13:13.552Z,25
2022-09-23T15:18:25.832Z,24
2022-09-23T15:33:57.948Z,23
2022-09-23T15:39:36.625Z,22
2022-09-23T15:44:44.399Z,23
2022-09-23T15:49:56.347Z,23
2022-09-23T15:55:08.545Z,22
2022-09-23T16:00:20.383Z,22
2022-09-23T16:05:32.892Z,22
2022-09-23T16:10:45.118Z,22
2022-09-23T16:15:57.505Z,22
2022-09-23T16:31:30.426Z,22
2022-09-23T16:36:42.496Z,21
2022-09-23T16:41:55.180Z,21
2022-09-23T16:47:07.393Z,21
2022-09-23T16:52:19.542Z,21
2022-09-23T16:58:04.075Z,21
2022-09-23T17:08:21.456Z,20
2022-09-23T17:13:34.462Z,20
2022-09-23T17:18:46.641Z,20
2022-09-23T17:23:58.766Z,20
2022-09-23T17:34:20.705Z,20
2022-09-23T17:39:32.565Z,19
2022-09-23T17:44:44.416Z,19
2022-09-23T17:55:06.334Z,18
2022-09-23T18:00:18.464Z,18
2022-09-23T18:10:40.729Z,18
2022-09-23T18:15:53.224Z,18
2022-09-23T18:21:05.536Z,18
2022-09-23T18:26:18.017Z,18
2022-09-23T18:31:30.691Z,17
2022-09-23T18:36:42.936Z,17
2022-09-23T18:41:54.833Z,17
2022-09-23T18:47:10.948Z,17
2022-09-23T18:52:26.495Z,17
2022-09-23T18:57:43.883Z,17
2022-09-23T19:03:02.181Z,17
2022-09-23T19:08:13.348Z,17
2022-09-23T19:13:28.514Z,16
2022-09-23T19:18:39.820Z,16
2022-09-23T19:23:53.511Z,16
2022-09-23T19:29:06.399Z,16
2022-09-23T19:34:18.404Z,16
2022-09-23T19:39:30.003Z,16
2022-09-23T19:44:42.892Z,16
2022-09-23T19:49:55.188Z,15
2022-09-23T19:55:08.146Z,15
2022-09-23T20:00:24.251Z,15
2022-09-23T20:05:39.453Z,15
2022-09-23T20:10:51.316Z,15
2022-09-23T20:16:03.716Z,15
2022-09-23T20:21:15.745Z,15
2022-09-23T20:26:27.705Z,15
2022-09-23T20:31:39.775Z,15
2022-09-23T20:36:52.118Z,15
2022-09-23T20:42:04.097Z,15
2022-09-23T20:47:16.476Z,15
2022-09-23T20:52:28.128Z,15
2022-09-23T20:57:39.767Z,15
2022-09-23T21:02:51.722Z,15
2022-09-23T21:08:08.980Z,14
2022-09-23T21:13:24.299Z,14
2022-09-23T21:18:36.259Z,14
2022-09-23T21:23:48.036Z,14
2022-09-23T21:28:59.516Z,14
2022-09-23T21:34:11.600Z,14
2022-09-23T21:39:23.169Z,14
2022-09-23T21:44:35.672Z,14
2022-09-23T21:49:51.555Z,14
2022-09-23T21:55:02.183Z,14
2022-09-23T22:00:14.035Z,14
2022-09-23T22:05:25.806Z,13
2022-09-23T22:10:37.646Z,13
2022-09-23T22:15:49.642Z,14
2022-09-23T22:21:01.859Z,14
2022-09-23T22:26:13.574Z,14
2022-09-23T22:31:25.576Z,14
2022-09-23T22:36:37.439Z,13
2022-09-23T22:41:49.255Z,13
2022-09-23T22:47:16.305Z,13
2022-09-23T22:52:25.282Z,13
2022-09-23T22:57:37.111Z,13
2022-09-23T23:02:48.856Z,13
2022-09-23T23:08:01.503Z,13
2022-09-23T23:13:12.876Z,13
2022-09-23T23:18:27.438Z,13
2022-09-23T23:23:38.400Z,13
2022-09-23T23:28:49.938Z,13
2022-09-23T23:34:01.746Z,13
2022-09-23T23:39:13.464Z,13
2022-09-23T23:44:25.300Z,12
2022-09-23T23:49:36.907Z,12
2022-09-23T23:54:48.655Z,12
